sensor_id;sensor_type;location;lat;lon;timestamp;P1;durP1;ratioP1;P2;durP2;ratioP2
37701;SDS011;23548;51.196;6.838;2023-11-21T00:01:35;24.88;;;13.32;;
37701;SDS011;23548;51.196;6.838;2023-11-21T00:04:02;23.73;;;13.48;;
37701;SDS011;23548;51.196;6.838;2023-11-21T00:06:28;23.73;;;13.68;;
37701;SDS011;23548;51.196;6.838;2023-11-21T00:08:55;25.65;;;14.13;;
37701;SDS011;23548;51.196;6.838;2023-11-21T00:11:21;26.23;;;14.70;;
37701;SDS011;23548;51.196;6.838;2023-11-21T00:13:47;28.00;;;14.55;;
37701;SDS011;23548;51.196;6.838;2023-11-21T00:16:12;25.73;;;13.68;;
37701;SDS011;23548;51.196;6.838;2023-11-21T00:18:38;25.67;;;14.30;;
37701;SDS011;23548;51.196;6.838;2023-11-21T00:21:04;23.73;;;13.77;;
37701;SDS011;23548;51.196;6.838;2023-11-21T00:23:30;29.90;;;13.82;;
37701;SDS011;23548;51.196;6.838;2023-11-21T00:25:56;24.10;;;15.30;;
37701;SDS011;23548;51.196;6.838;2023-11-21T00:28:21;26.70;;;14.05;;
37701;SDS011;23548;51.196;6.838;2023-11-21T00:30:47;23.00;;;13.77;;
37701;SDS011;23548;51.196;6.838;2023-11-21T00:33:13;26.15;;;14.32;;
37701;SDS011;23548;51.196;6.838;2023-11-21T00:35:39;26.45;;;13.27;;
37701;SDS011;23548;51.196;6.838;2023-11-21T00:38:04;27.00;;;13.75;;
37701;SDS011;23548;51.196;6.838;2023-11-21T00:40:30;22.15;;;12.55;;
37701;SDS011;23548;51.196;6.838;2023-11-21T00:42:56;24.38;;;13.02;;
37701;SDS011;23548;51.196;6.838;2023-11-21T00:45:22;27.25;;;12.70;;
37701;SDS011;23548;51.196;6.838;2023-11-21T00:47:47;24.70;;;11.98;;
37701;SDS011;23548;51.196;6.838;2023-11-21T00:50:13;28.58;;;12.63;;
37701;SDS011;23548;51.196;6.838;2023-11-21T00:52:39;27.55;;;13.23;;
37701;SDS011;23548;51.196;6.838;2023-11-21T00:55:05;32.55;;;13.48;;
37701;SDS011;23548;51.196;6.838;2023-11-21T00:57:32;24.98;;;13.07;;
37701;SDS011;23548;51.196;6.838;2023-11-21T00:59:58;25.90;;;13.35;;
37701;SDS011;23548;51.196;6.838;2023-11-21T01:02:24;27.50;;;13.82;;
37701;SDS011;23548;51.196;6.838;2023-11-21T01:04:50;25.38;;;13.85;;
37701;SDS011;23548;51.196;6.838;2023-11-21T01:07:16;29.88;;;14.02;;
37701;SDS011;23548;51.196;6.838;2023-11-21T01:09:45;26.98;;;13.98;;
37701;SDS011;23548;51.196;6.838;2023-11-21T01:12:11;31.67;;;14.93;;
37701;SDS011;23548;51.196;6.838;2023-11-21T01:14:37;29.42;;;13.43;;
37701;SDS011;23548;51.196;6.838;2023-11-21T01:17:02;27.17;;;14.82;;
37701;SDS011;23548;51.196;6.838;2023-11-21T01:19:29;27.63;;;14.20;;
37701;SDS011;23548;51.196;6.838;2023-11-21T01:21:55;24.58;;;13.90;;
37701;SDS011;23548;51.196;6.838;2023-11-21T01:24:23;28.13;;;13.88;;
37701;SDS011;23548;51.196;6.838;2023-11-21T01:26:49;32.08;;;15.00;;
37701;SDS011;23548;51.196;6.838;2023-11-21T01:29:14;31.17;;;14.55;;
37701;SDS011;23548;51.196;6.838;2023-11-21T01:31:40;28.42;;;15.18;;
37701;SDS011;23548;51.196;6.838;2023-11-21T01:34:06;33.42;;;15.73;;
37701;SDS011;23548;51.196;6.838;2023-11-21T01:36:32;30.05;;;15.85;;
37701;SDS011;23548;51.196;6.838;2023-11-21T01:38:58;38.30;;;19.10;;
37701;SDS011;23548;51.196;6.838;2023-11-21T01:41:27;39.15;;;18.48;;
37701;SDS011;23548;51.196;6.838;2023-11-21T01:43:54;31.98;;;16.08;;
37701;SDS011;23548;51.196;6.838;2023-11-21T01:46:20;37.40;;;17.73;;
37701;SDS011;23548;51.196;6.838;2023-11-21T01:48:46;37.17;;;17.02;;
37701;SDS011;23548;51.196;6.838;2023-11-21T01:51:14;37.88;;;18.05;;
37701;SDS011;23548;51.196;6.838;2023-11-21T01:53:40;37.20;;;17.60;;
37701;SDS011;23548;51.196;6.838;2023-11-21T01:56:06;36.50;;;17.30;;
37701;SDS011;23548;51.196;6.838;2023-11-21T01:58:34;31.33;;;17.15;;
37701;SDS011;23548;51.196;6.838;2023-11-21T02:00:59;36.70;;;17.85;;
37701;SDS011;23548;51.196;6.838;2023-11-21T02:03:40;38.55;;;17.90;;
37701;SDS011;23548;51.196;6.838;2023-11-21T02:06:06;34.80;;;18.10;;
37701;SDS011;23548;51.196;6.838;2023-11-21T02:08:33;33.78;;;17.25;;
37701;SDS011;23548;51.196;6.838;2023-11-21T02:10:59;33.20;;;15.75;;
37701;SDS011;23548;51.196;6.838;2023-11-21T02:13:25;37.22;;;16.58;;
37701;SDS011;23548;51.196;6.838;2023-11-21T02:15:50;31.92;;;15.30;;
37701;SDS011;23548;51.196;6.838;2023-11-21T02:18:18;27.77;;;15.27;;
37701;SDS011;23548;51.196;6.838;2023-11-21T02:20:43;35.95;;;16.58;;
37701;SDS011;23548;51.196;6.838;2023-11-21T02:23:09;33.90;;;16.75;;
37701;SDS011;23548;51.196;6.838;2023-11-21T02:25:35;33.15;;;17.17;;
37701;SDS011;23548;51.196;6.838;2023-11-21T02:28:02;34.47;;;16.88;;
37701;SDS011;23548;51.196;6.838;2023-11-21T02:30:29;42.38;;;18.52;;
37701;SDS011;23548;51.196;6.838;2023-11-21T02:32:58;36.28;;;17.98;;
37701;SDS011;23548;51.196;6.838;2023-11-21T02:35:24;36.53;;;17.23;;
37701;SDS011;23548;51.196;6.838;2023-11-21T02:37:52;33.20;;;16.77;;
37701;SDS011;23548;51.196;6.838;2023-11-21T02:40:18;33.17;;;17.80;;
37701;SDS011;23548;51.196;6.838;2023-11-21T02:42:49;37.30;;;17.63;;
37701;SDS011;23548;51.196;6.838;2023-11-21T02:45:17;36.28;;;17.85;;
37701;SDS011;23548;51.196;6.838;2023-11-21T02:47:45;32.42;;;16.42;;
37701;SDS011;23548;51.196;6.838;2023-11-21T02:50:12;38.15;;;18.08;;
37701;SDS011;23548;51.196;6.838;2023-11-21T02:52:38;36.28;;;16.88;;
37701;SDS011;23548;51.196;6.838;2023-11-21T02:55:05;35.67;;;16.35;;
37701;SDS011;23548;51.196;6.838;2023-11-21T02:57:32;37.60;;;17.27;;
37701;SDS011;23548;51.196;6.838;2023-11-21T02:59:58;34.83;;;17.13;;
37701;SDS011;23548;51.196;6.838;2023-11-21T03:02:25;39.70;;;16.75;;
37701;SDS011;23548;51.196;6.838;2023-11-21T03:04:51;34.65;;;16.75;;
37701;SDS011;23548;51.196;6.838;2023-11-21T03:07:17;33.90;;;16.70;;
37701;SDS011;23548;51.196;6.838;2023-11-21T03:09:44;32.70;;;17.25;;
37701;SDS011;23548;51.196;6.838;2023-11-21T03:12:10;37.40;;;17.90;;
37701;SDS011;23548;51.196;6.838;2023-11-21T03:14:37;38.65;;;17.15;;
37701;SDS011;23548;51.196;6.838;2023-11-21T03:17:04;32.45;;;15.75;;
37701;SDS011;23548;51.196;6.838;2023-11-21T03:19:30;31.55;;;16.27;;
37701;SDS011;23548;51.196;6.838;2023-11-21T03:21:56;30.80;;;15.82;;
37701;SDS011;23548;51.196;6.838;2023-11-21T03:24:21;33.67;;;17.17;;
37701;SDS011;23548;51.196;6.838;2023-11-21T03:26:48;27.05;;;15.98;;
37701;SDS011;23548;51.196;6.838;2023-11-21T03:29:14;33.05;;;16.73;;
37701;SDS011;23548;51.196;6.838;2023-11-21T03:31:42;36.40;;;17.05;;
37701;SDS011;23548;51.196;6.838;2023-11-21T03:34:15;39.63;;;16.88;;
37701;SDS011;23548;51.196;6.838;2023-11-21T03:36:49;40.78;;;18.30;;
37701;SDS011;23548;51.196;6.838;2023-11-21T03:39:15;33.67;;;16.88;;
37701;SDS011;23548;51.196;6.838;2023-11-21T03:41:41;33.38;;;16.00;;
37701;SDS011;23548;51.196;6.838;2023-11-21T03:44:06;31.48;;;15.20;;
37701;SDS011;23548;51.196;6.838;2023-11-21T03:46:32;31.17;;;16.30;;
37701;SDS011;23548;51.196;6.838;2023-11-21T03:48:58;28.73;;;17.02;;
37701;SDS011;23548;51.196;6.838;2023-11-21T03:51:23;32.00;;;15.93;;
37701;SDS011;23548;51.196;6.838;2023-11-21T03:53:49;33.08;;;16.98;;
37701;SDS011;23548;51.196;6.838;2023-11-21T03:56:15;34.03;;;16.92;;
37701;SDS011;23548;51.196;6.838;2023-11-21T03:58:41;34.65;;;16.75;;
37701;SDS011;23548;51.196;6.838;2023-11-21T04:01:06;35.13;;;17.20;;
37701;SDS011;23548;51.196;6.838;2023-11-21T04:03:33;33.42;;;16.58;;
37701;SDS011;23548;51.196;6.838;2023-11-21T04:05:58;34.88;;;17.38;;
37701;SDS011;23548;51.196;6.838;2023-11-21T04:08:26;28.00;;;16.95;;
37701;SDS011;23548;51.196;6.838;2023-11-21T04:10:51;35.47;;;17.52;;
37701;SDS011;23548;51.196;6.838;2023-11-21T04:13:18;38.13;;;17.85;;
37701;SDS011;23548;51.196;6.838;2023-11-21T04:15:44;36.85;;;17.58;;
37701;SDS011;23548;51.196;6.838;2023-11-21T04:18:10;29.80;;;16.70;;
37701;SDS011;23548;51.196;6.838;2023-11-21T04:20:35;28.00;;;15.50;;
37701;SDS011;23548;51.196;6.838;2023-11-21T04:23:01;32.67;;;17.75;;
37701;SDS011;23548;51.196;6.838;2023-11-21T04:25:28;31.85;;;17.52;;
37701;SDS011;23548;51.196;6.838;2023-11-21T04:27:54;30.08;;;16.60;;
37701;SDS011;23548;51.196;6.838;2023-11-21T04:30:19;30.17;;;16.25;;
37701;SDS011;23548;51.196;6.838;2023-11-21T04:32:45;30.20;;;17.08;;
37701;SDS011;23548;51.196;6.838;2023-11-21T04:35:11;35.05;;;16.63;;
37701;SDS011;23548;51.196;6.838;2023-11-21T04:37:37;31.90;;;18.20;;
37701;SDS011;23548;51.196;6.838;2023-11-21T04:40:03;36.15;;;17.85;;
37701;SDS011;23548;51.196;6.838;2023-11-21T04:42:33;39.95;;;18.67;;
37701;SDS011;23548;51.196;6.838;2023-11-21T04:45:05;36.50;;;17.90;;
37701;SDS011;23548;51.196;6.838;2023-11-21T04:47:35;35.45;;;18.05;;
37701;SDS011;23548;51.196;6.838;2023-11-21T04:50:02;31.60;;;16.98;;
37701;SDS011;23548;51.196;6.838;2023-11-21T04:52:28;42.42;;;18.33;;
37701;SDS011;23548;51.196;6.838;2023-11-21T04:54:54;39.00;;;18.75;;
37701;SDS011;23548;51.196;6.838;2023-11-21T04:57:22;34.28;;;18.55;;
37701;SDS011;23548;51.196;6.838;2023-11-21T04:59:48;34.45;;;19.15;;
37701;SDS011;23548;51.196;6.838;2023-11-21T05:02:15;39.33;;;19.33;;
37701;SDS011;23548;51.196;6.838;2023-11-21T05:04:41;36.13;;;18.88;;
37701;SDS011;23548;51.196;6.838;2023-11-21T05:07:07;42.42;;;18.85;;
37701;SDS011;23548;51.196;6.838;2023-11-21T05:09:33;36.05;;;19.10;;
37701;SDS011;23548;51.196;6.838;2023-11-21T05:12:00;37.58;;;19.65;;
37701;SDS011;23548;51.196;6.838;2023-11-21T05:14:26;41.47;;;19.77;;
37701;SDS011;23548;51.196;6.838;2023-11-21T05:16:52;41.08;;;21.27;;
37701;SDS011;23548;51.196;6.838;2023-11-21T05:19:18;33.50;;;19.05;;
37701;SDS011;23548;51.196;6.838;2023-11-21T05:21:44;41.63;;;19.67;;
37701;SDS011;23548;51.196;6.838;2023-11-21T05:24:10;35.40;;;19.25;;
37701;SDS011;23548;51.196;6.838;2023-11-21T05:26:36;37.05;;;19.50;;
37701;SDS011;23548;51.196;6.838;2023-11-21T05:29:01;35.63;;;17.77;;
37701;SDS011;23548;51.196;6.838;2023-11-21T05:31:27;35.75;;;19.05;;
37701;SDS011;23548;51.196;6.838;2023-11-21T05:33:53;33.28;;;17.45;;
37701;SDS011;23548;51.196;6.838;2023-11-21T05:36:18;34.78;;;17.80;;
37701;SDS011;23548;51.196;6.838;2023-11-21T05:38:44;35.47;;;19.42;;
37701;SDS011;23548;51.196;6.838;2023-11-21T05:41:11;39.92;;;20.35;;
37701;SDS011;23548;51.196;6.838;2023-11-21T05:43:38;32.17;;;17.33;;
37701;SDS011;23548;51.196;6.838;2023-11-21T05:46:04;36.17;;;18.73;;
37701;SDS011;23548;51.196;6.838;2023-11-21T05:48:32;38.08;;;18.67;;
37701;SDS011;23548;51.196;6.838;2023-11-21T05:50:57;35.08;;;18.75;;
37701;SDS011;23548;51.196;6.838;2023-11-21T05:53:24;36.80;;;18.98;;
37701;SDS011;23548;51.196;6.838;2023-11-21T05:55:50;39.28;;;17.65;;
37701;SDS011;23548;51.196;6.838;2023-11-21T05:58:15;40.53;;;19.90;;
37701;SDS011;23548;51.196;6.838;2023-11-21T06:00:41;38.78;;;19.77;;
37701;SDS011;23548;51.196;6.838;2023-11-21T06:03:07;39.80;;;20.75;;
37701;SDS011;23548;51.196;6.838;2023-11-21T06:05:33;48.28;;;21.80;;
37701;SDS011;23548;51.196;6.838;2023-11-21T06:07:59;45.10;;;22.73;;
37701;SDS011;23548;51.196;6.838;2023-11-21T06:10:25;40.45;;;21.20;;
37701;SDS011;23548;51.196;6.838;2023-11-21T06:12:53;40.78;;;21.83;;
37701;SDS011;23548;51.196;6.838;2023-11-21T06:15:19;48.50;;;22.35;;
37701;SDS011;23548;51.196;6.838;2023-11-21T06:17:47;50.72;;;22.65;;
37701;SDS011;23548;51.196;6.838;2023-11-21T06:20:17;55.05;;;24.88;;
37701;SDS011;23548;51.196;6.838;2023-11-21T06:22:43;45.65;;;22.25;;
37701;SDS011;23548;51.196;6.838;2023-11-21T06:25:11;41.22;;;21.10;;
37701;SDS011;23548;51.196;6.838;2023-11-21T06:27:44;37.60;;;20.70;;
37701;SDS011;23548;51.196;6.838;2023-11-21T06:30:13;53.33;;;24.77;;
37701;SDS011;23548;51.196;6.838;2023-11-21T06:32:40;56.22;;;25.83;;
37701;SDS011;23548;51.196;6.838;2023-11-21T06:35:07;56.13;;;25.85;;
37701;SDS011;23548;51.196;6.838;2023-11-21T06:37:36;45.58;;;22.98;;
37701;SDS011;23548;51.196;6.838;2023-11-21T06:40:02;55.10;;;24.50;;
37701;SDS011;23548;51.196;6.838;2023-11-21T06:42:31;56.55;;;28.02;;
37701;SDS011;23548;51.196;6.838;2023-11-21T06:44:58;62.72;;;26.85;;
37701;SDS011;23548;51.196;6.838;2023-11-21T06:47:27;58.00;;;25.95;;
37701;SDS011;23548;51.196;6.838;2023-11-21T06:49:54;47.25;;;24.40;;
37701;SDS011;23548;51.196;6.838;2023-11-21T06:52:21;59.35;;;27.08;;
37701;SDS011;23548;51.196;6.838;2023-11-21T06:54:48;61.58;;;27.92;;
37701;SDS011;23548;51.196;6.838;2023-11-21T06:57:16;59.72;;;27.00;;
37701;SDS011;23548;51.196;6.838;2023-11-21T06:59:42;53.67;;;25.92;;
37701;SDS011;23548;51.196;6.838;2023-11-21T07:02:08;54.35;;;26.27;;
37701;SDS011;23548;51.196;6.838;2023-11-21T07:04:35;52.80;;;26.60;;
37701;SDS011;23548;51.196;6.838;2023-11-21T07:07:02;54.88;;;25.63;;
37701;SDS011;23548;51.196;6.838;2023-11-21T07:09:28;62.70;;;26.70;;
37701;SDS011;23548;51.196;6.838;2023-11-21T07:11:55;57.90;;;24.98;;
37701;SDS011;23548;51.196;6.838;2023-11-21T07:14:21;55.15;;;26.10;;
37701;SDS011;23548;51.196;6.838;2023-11-21T07:16:47;65.90;;;25.80;;
37701;SDS011;23548;51.196;6.838;2023-11-21T07:19:13;59.25;;;26.02;;
37701;SDS011;23548;51.196;6.838;2023-11-21T07:21:39;57.58;;;25.98;;
37701;SDS011;23548;51.196;6.838;2023-11-21T07:24:06;58.00;;;26.65;;
37701;SDS011;23548;51.196;6.838;2023-11-21T07:26:33;60.92;;;27.00;;
37701;SDS011;23548;51.196;6.838;2023-11-21T07:29:00;55.28;;;26.63;;
37701;SDS011;23548;51.196;6.838;2023-11-21T07:31:26;55.80;;;25.05;;
37701;SDS011;23548;51.196;6.838;2023-11-21T07:33:52;65.07;;;26.05;;
37701;SDS011;23548;51.196;6.838;2023-11-21T07:36:21;55.30;;;23.70;;
37701;SDS011;23548;51.196;6.838;2023-11-21T07:38:47;56.45;;;24.38;;
37701;SDS011;23548;51.196;6.838;2023-11-21T07:41:13;66.20;;;27.65;;
37701;SDS011;23548;51.196;6.838;2023-11-21T07:43:42;61.25;;;24.75;;
37701;SDS011;23548;51.196;6.838;2023-11-21T07:46:09;54.15;;;23.83;;
37701;SDS011;23548;51.196;6.838;2023-11-21T07:48:41;59.90;;;24.40;;
37701;SDS011;23548;51.196;6.838;2023-11-21T07:51:07;58.63;;;24.02;;
37701;SDS011;23548;51.196;6.838;2023-11-21T07:53:34;66.18;;;26.05;;
37701;SDS011;23548;51.196;6.838;2023-11-21T07:56:03;61.63;;;23.83;;
37701;SDS011;23548;51.196;6.838;2023-11-21T07:58:33;64.45;;;24.52;;
37701;SDS011;23548;51.196;6.838;2023-11-21T08:00:59;63.15;;;24.52;;
37701;SDS011;23548;51.196;6.838;2023-11-21T08:03:25;64.20;;;24.30;;
37701;SDS011;23548;51.196;6.838;2023-11-21T08:05:52;56.40;;;24.05;;
37701;SDS011;23548;51.196;6.838;2023-11-21T08:08:18;67.00;;;25.58;;
37701;SDS011;23548;51.196;6.838;2023-11-21T08:10:44;67.10;;;26.08;;
37701;SDS011;23548;51.196;6.838;2023-11-21T08:13:13;63.00;;;25.52;;
37701;SDS011;23548;51.196;6.838;2023-11-21T08:15:41;64.45;;;25.52;;
37701;SDS011;23548;51.196;6.838;2023-11-21T08:18:11;63.53;;;25.75;;
37701;SDS011;23548;51.196;6.838;2023-11-21T08:20:38;68.25;;;27.23;;
37701;SDS011;23548;51.196;6.838;2023-11-21T08:23:05;69.75;;;26.92;;
37701;SDS011;23548;51.196;6.838;2023-11-21T08:25:31;66.43;;;27.85;;
37701;SDS011;23548;51.196;6.838;2023-11-21T08:27:58;73.30;;;28.75;;
37701;SDS011;23548;51.196;6.838;2023-11-21T08:30:24;65.43;;;27.25;;
37701;SDS011;23548;51.196;6.838;2023-11-21T08:32:50;67.22;;;28.02;;
37701;SDS011;23548;51.196;6.838;2023-11-21T08:35:18;65.47;;;27.67;;
37701;SDS011;23548;51.196;6.838;2023-11-21T08:37:44;62.42;;;27.08;;
37701;SDS011;23548;51.196;6.838;2023-11-21T08:40:11;58.28;;;27.60;;
37701;SDS011;23548;51.196;6.838;2023-11-21T08:42:41;61.88;;;27.38;;
37701;SDS011;23548;51.196;6.838;2023-11-21T08:45:08;57.88;;;25.70;;
37701;SDS011;23548;51.196;6.838;2023-11-21T08:47:34;66.35;;;28.08;;
37701;SDS011;23548;51.196;6.838;2023-11-21T08:50:01;66.65;;;27.90;;
37701;SDS011;23548;51.196;6.838;2023-11-21T08:52:27;63.20;;;27.83;;
37701;SDS011;23548;51.196;6.838;2023-11-21T08:54:53;61.70;;;27.05;;
37701;SDS011;23548;51.196;6.838;2023-11-21T08:57:22;64.28;;;28.52;;
37701;SDS011;23548;51.196;6.838;2023-11-21T08:59:48;56.28;;;28.33;;
37701;SDS011;23548;51.196;6.838;2023-11-21T09:02:14;60.10;;;27.90;;
37701;SDS011;23548;51.196;6.838;2023-11-21T09:04:39;61.90;;;29.05;;
37701;SDS011;23548;51.196;6.838;2023-11-21T09:07:05;60.80;;;29.25;;
37701;SDS011;23548;51.196;6.838;2023-11-21T09:09:30;57.30;;;27.85;;
37701;SDS011;23548;51.196;6.838;2023-11-21T09:11:56;56.85;;;27.30;;
37701;SDS011;23548;51.196;6.838;2023-11-21T09:14:22;59.90;;;27.55;;
37701;SDS011;23548;51.196;6.838;2023-11-21T09:16:48;67.75;;;28.13;;
37701;SDS011;23548;51.196;6.838;2023-11-21T09:19:15;59.65;;;27.13;;
37701;SDS011;23548;51.196;6.838;2023-11-21T09:21:41;71.35;;;28.48;;
37701;SDS011;23548;51.196;6.838;2023-11-21T09:24:07;67.82;;;28.95;;
37701;SDS011;23548;51.196;6.838;2023-11-21T09:26:34;64.53;;;28.27;;
37701;SDS011;23548;51.196;6.838;2023-11-21T09:28:59;62.53;;;27.40;;
37701;SDS011;23548;51.196;6.838;2023-11-21T09:31:27;62.97;;;28.40;;
37701;SDS011;23548;51.196;6.838;2023-11-21T09:33:52;58.78;;;27.60;;
37701;SDS011;23548;51.196;6.838;2023-11-21T09:36:18;69.30;;;29.77;;
37701;SDS011;23548;51.196;6.838;2023-11-21T09:38:44;61.30;;;29.85;;
37701;SDS011;23548;51.196;6.838;2023-11-21T09:41:20;58.97;;;26.48;;
37701;SDS011;23548;51.196;6.838;2023-11-21T09:43:53;62.42;;;26.90;;
37701;SDS011;23548;51.196;6.838;2023-11-21T09:46:22;58.35;;;27.30;;
37701;SDS011;23548;51.196;6.838;2023-11-21T09:48:51;61.30;;;26.73;;
37701;SDS011;23548;51.196;6.838;2023-11-21T09:51:18;55.92;;;26.20;;
37701;SDS011;23548;51.196;6.838;2023-11-21T09:53:48;64.00;;;27.20;;
37701;SDS011;23548;51.196;6.838;2023-11-21T09:56:17;59.25;;;26.52;;
37701;SDS011;23548;51.196;6.838;2023-11-21T09:58:50;57.58;;;26.10;;
37701;SDS011;23548;51.196;6.838;2023-11-21T10:01:17;59.72;;;26.70;;
37701;SDS011;23548;51.196;6.838;2023-11-21T10:03:43;58.78;;;24.60;;
37701;SDS011;23548;51.196;6.838;2023-11-21T10:06:09;53.63;;;24.88;;
37701;SDS011;23548;51.196;6.838;2023-11-21T10:08:39;61.28;;;25.73;;
37701;SDS011;23548;51.196;6.838;2023-11-21T10:11:06;53.30;;;24.52;;
37701;SDS011;23548;51.196;6.838;2023-11-21T10:13:36;51.83;;;24.13;;
37701;SDS011;23548;51.196;6.838;2023-11-21T10:16:03;55.47;;;24.98;;
37701;SDS011;23548;51.196;6.838;2023-11-21T10:18:31;57.63;;;25.83;;
37701;SDS011;23548;51.196;6.838;2023-11-21T10:20:59;54.92;;;25.00;;
37701;SDS011;23548;51.196;6.838;2023-11-21T10:23:25;54.00;;;24.98;;
37701;SDS011;23548;51.196;6.838;2023-11-21T10:25:52;59.13;;;25.95;;
37701;SDS011;23548;51.196;6.838;2023-11-21T10:28:18;52.90;;;23.70;;
37701;SDS011;23548;51.196;6.838;2023-11-21T10:30:45;56.78;;;24.52;;
37701;SDS011;23548;51.196;6.838;2023-11-21T10:33:11;52.97;;;24.25;;
37701;SDS011;23548;51.196;6.838;2023-11-21T10:38:15;56.25;;;24.35;;
37701;SDS011;23548;51.196;6.838;2023-11-21T10:40:47;58.95;;;25.33;;
37701;SDS011;23548;51.196;6.838;2023-11-21T10:43:14;68.82;;;27.77;;
37701;SDS011;23548;51.196;6.838;2023-11-21T10:45:40;65.63;;;27.08;;
37701;SDS011;23548;51.196;6.838;2023-11-21T10:48:08;60.92;;;25.45;;
37701;SDS011;23548;51.196;6.838;2023-11-21T10:50:35;51.28;;;24.90;;
37701;SDS011;23548;51.196;6.838;2023-11-21T10:53:05;53.03;;;24.90;;
37701;SDS011;23548;51.196;6.838;2023-11-21T10:55:31;60.65;;;27.23;;
37701;SDS011;23548;51.196;6.838;2023-11-21T10:58:02;63.95;;;27.38;;
37701;SDS011;23548;51.196;6.838;2023-11-21T11:00:30;66.13;;;28.63;;
37701;SDS011;23548;51.196;6.838;2023-11-21T11:02:57;55.20;;;25.92;;
37701;SDS011;23548;51.196;6.838;2023-11-21T11:05:24;56.15;;;28.25;;
37701;SDS011;23548;51.196;6.838;2023-11-21T11:07:52;60.95;;;28.13;;
37701;SDS011;23548;51.196;6.838;2023-11-21T11:10:27;64.13;;;28.42;;
37701;SDS011;23548;51.196;6.838;2023-11-21T11:12:56;73.43;;;29.90;;
37701;SDS011;23548;51.196;6.838;2023-11-21T11:15:23;68.10;;;32.42;;
37701;SDS011;23548;51.196;6.838;2023-11-21T11:17:50;77.00;;;34.38;;
37701;SDS011;23548;51.196;6.838;2023-11-21T11:20:16;69.45;;;32.90;;
37701;SDS011;23548;51.196;6.838;2023-11-21T11:28:15;89.07;;;38.60;;
37701;SDS011;23548;51.196;6.838;2023-11-21T11:36:37;81.55;;;38.67;;
37701;SDS011;23548;51.196;6.838;2023-11-21T11:41:55;98.72;;;41.72;;
37701;SDS011;23548;51.196;6.838;2023-11-21T11:47:25;96.25;;;41.58;;
37701;SDS011;23548;51.196;6.838;2023-11-21T11:50:10;102.28;;;41.75;;
37701;SDS011;23548;51.196;6.838;2023-11-21T11:52:42;85.57;;;36.30;;
37701;SDS011;23548;51.196;6.838;2023-11-21T11:55:15;93.63;;;40.15;;
37701;SDS011;23548;51.196;6.838;2023-11-21T11:57:50;89.00;;;37.33;;
37701;SDS011;23548;51.196;6.838;2023-11-21T12:00:18;84.13;;;36.95;;
37701;SDS011;23548;51.196;6.838;2023-11-21T12:02:51;88.05;;;38.05;;
37701;SDS011;23548;51.196;6.838;2023-11-21T12:05:19;81.13;;;37.50;;
37701;SDS011;23548;51.196;6.838;2023-11-21T12:07:53;88.00;;;37.50;;
37701;SDS011;23548;51.196;6.838;2023-11-21T12:10:24;71.63;;;32.17;;
37701;SDS011;23548;51.196;6.838;2023-11-21T12:12:57;66.93;;;30.55;;
37701;SDS011;23548;51.196;6.838;2023-11-21T12:15:24;71.65;;;31.05;;
37701;SDS011;23548;51.196;6.838;2023-11-21T12:17:50;66.70;;;29.33;;
37701;SDS011;23548;51.196;6.838;2023-11-21T12:20:24;65.32;;;28.48;;
37701;SDS011;23548;51.196;6.838;2023-11-21T12:22:50;66.15;;;29.77;;
37701;SDS011;23548;51.196;6.838;2023-11-21T12:25:21;71.32;;;30.85;;
37701;SDS011;23548;51.196;6.838;2023-11-21T12:27:49;57.67;;;26.85;;
37701;SDS011;23548;51.196;6.838;2023-11-21T12:30:19;68.47;;;28.30;;
37701;SDS011;23548;51.196;6.838;2023-11-21T12:32:50;67.30;;;28.00;;
37701;SDS011;23548;51.196;6.838;2023-11-21T12:35:17;71.57;;;28.70;;
37701;SDS011;23548;51.196;6.838;2023-11-21T12:37:47;74.35;;;29.58;;
37701;SDS011;23548;51.196;6.838;2023-11-21T12:40:14;72.45;;;28.50;;
37701;SDS011;23548;51.196;6.838;2023-11-21T12:42:41;69.88;;;27.92;;
37701;SDS011;23548;51.196;6.838;2023-11-21T12:45:08;72.30;;;28.42;;
37701;SDS011;23548;51.196;6.838;2023-11-21T12:47:43;61.35;;;27.73;;
37701;SDS011;23548;51.196;6.838;2023-11-21T12:50:12;60.50;;;25.90;;
37701;SDS011;23548;51.196;6.838;2023-11-21T12:52:45;60.67;;;26.52;;
37701;SDS011;23548;51.196;6.838;2023-11-21T12:55:17;65.13;;;27.65;;
37701;SDS011;23548;51.196;6.838;2023-11-21T12:57:47;61.15;;;27.65;;
37701;SDS011;23548;51.196;6.838;2023-11-21T13:00:17;64.03;;;28.08;;
37701;SDS011;23548;51.196;6.838;2023-11-21T13:02:56;54.10;;;26.42;;
37701;SDS011;23548;51.196;6.838;2023-11-21T13:05:33;62.15;;;26.92;;
37701;SDS011;23548;51.196;6.838;2023-11-21T13:08:02;56.42;;;27.08;;
37701;SDS011;23548;51.196;6.838;2023-11-21T13:10:32;58.45;;;26.42;;
37701;SDS011;23548;51.196;6.838;2023-11-21T13:13:01;57.38;;;26.83;;
37701;SDS011;23548;51.196;6.838;2023-11-21T13:15:30;65.15;;;28.40;;
37701;SDS011;23548;51.196;6.838;2023-11-21T13:17:58;66.65;;;29.52;;
37701;SDS011;23548;51.196;6.838;2023-11-21T13:20:26;60.08;;;28.38;;
37701;SDS011;23548;51.196;6.838;2023-11-21T13:22:56;71.65;;;28.48;;
37701;SDS011;23548;51.196;6.838;2023-11-21T13:25:27;74.03;;;29.85;;
37701;SDS011;23548;51.196;6.838;2023-11-21T13:27:56;66.13;;;30.52;;
37701;SDS011;23548;51.196;6.838;2023-11-21T13:30:23;68.28;;;30.15;;
37701;SDS011;23548;51.196;6.838;2023-11-21T13:32:54;63.35;;;28.88;;
37701;SDS011;23548;51.196;6.838;2023-11-21T13:35:27;66.95;;;29.83;;
37701;SDS011;23548;51.196;6.838;2023-11-21T13:38:06;73.20;;;30.83;;
37701;SDS011;23548;51.196;6.838;2023-11-21T13:40:34;64.28;;;29.35;;
37701;SDS011;23548;51.196;6.838;2023-11-21T13:43:08;69.00;;;30.60;;
37701;SDS011;23548;51.196;6.838;2023-11-21T13:45:37;77.13;;;31.55;;
37701;SDS011;23548;51.196;6.838;2023-11-21T13:48:04;72.47;;;32.30;;
37701;SDS011;23548;51.196;6.838;2023-11-21T13:50:35;77.10;;;33.25;;
37701;SDS011;23548;51.196;6.838;2023-11-21T13:53:02;76.90;;;34.83;;
37701;SDS011;23548;51.196;6.838;2023-11-21T13:55:36;78.13;;;34.08;;
37701;SDS011;23548;51.196;6.838;2023-11-21T13:58:02;78.05;;;36.03;;
37701;SDS011;23548;51.196;6.838;2023-11-21T14:00:29;81.43;;;36.85;;
37701;SDS011;23548;51.196;6.838;2023-11-21T14:03:10;83.18;;;36.33;;
37701;SDS011;23548;51.196;6.838;2023-11-21T14:05:47;80.05;;;36.50;;
37701;SDS011;23548;51.196;6.838;2023-11-21T14:08:17;86.20;;;38.47;;
37701;SDS011;23548;51.196;6.838;2023-11-21T14:10:47;87.07;;;37.40;;
37701;SDS011;23548;51.196;6.838;2023-11-21T14:13:20;84.57;;;37.53;;
37701;SDS011;23548;51.196;6.838;2023-11-21T14:15:48;86.65;;;35.92;;
37701;SDS011;23548;51.196;6.838;2023-11-21T14:18:19;91.00;;;38.25;;
37701;SDS011;23548;51.196;6.838;2023-11-21T14:20:52;95.22;;;37.17;;
37701;SDS011;23548;51.196;6.838;2023-11-21T14:23:18;94.22;;;36.03;;
37701;SDS011;23548;51.196;6.838;2023-11-21T14:25:45;78.32;;;33.78;;
37701;SDS011;23548;51.196;6.838;2023-11-21T14:28:10;76.68;;;33.50;;
37701;SDS011;23548;51.196;6.838;2023-11-21T14:30:37;75.22;;;31.25;;
37701;SDS011;23548;51.196;6.838;2023-11-21T14:33:04;62.92;;;29.13;;
37701;SDS011;23548;51.196;6.838;2023-11-21T14:35:33;62.85;;;29.50;;
37701;SDS011;23548;51.196;6.838;2023-11-21T14:37:59;51.35;;;23.13;;
37701;SDS011;23548;51.196;6.838;2023-11-21T14:40:26;43.35;;;20.50;;
37701;SDS011;23548;51.196;6.838;2023-11-21T14:42:57;46.35;;;23.75;;